Time,TemperatureF,DewpointF,PressureIn,WindDirection,WindDirectionDegrees,WindSpeedMPH,WindSpeedGustMPH,Humidity,HourlyPrecipIn,Conditions,Clouds,dailyrainin,SoftwareType,DateUTC
2013-03-24 00:00:00,53.6,-1.6,29.87,NW,315,3.4,3.4,7,0.00,,,0.00,WUHU216HW,2013-03-24 06:00:00,
2013-03-24 00:05:00,53.6,-1.6,29.87,NW,315,3.4,3.4,7,0.00,,,0.00,WUHU216HW,2013-03-24 06:05:00,
2013-03-24 00:30:00,52.2,-2.8,29.88,NW,315,4.0,4.0,7,0.00,,,0.00,WUHU216HW,2013-03-24 06:30:00,
2013-03-24 00:35:00,52.2,-2.8,29.88,NW,315,4.0,4.0,7,0.00,,,0.00,WUHU216HW,2013-03-24 06:35:00,
2013-03-24 01:00:00,50.4,-4.2,29.89,NW,315,9.2,9.2,7,0.00,,,0.00,WUHU216HW,2013-03-24 07:00:00,
2013-03-24 01:05:00,50.4,-4.2,29.89,NW,315,9.2,9.2,7,0.00,,,0.00,WUHU216HW,2013-03-24 07:05:00,
2013-03-24 01:30:00,49.0,-5.2,29.90,NNW,338,6.9,6.9,8,0.00,,,0.00,WUHU216HW,2013-03-24 07:30:00,
2013-03-24 01:35:00,49.0,-5.2,29.90,NNW,338,6.9,6.9,8,0.00,,,0.00,WUHU216HW,2013-03-24 07:35:00,
2013-03-24 02:00:00,47.5,-6.3,29.91,NW,315,3.6,3.6,8,0.00,,,0.00,WUHU216HW,2013-03-24 08:00:00,
2013-03-24 02:05:00,47.5,-6.3,29.91,NW,315,3.6,3.6,8,0.00,,,0.00,WUHU216HW,2013-03-24 08:05:00,
2013-03-24 02:30:00,46.3,-7.4,29.91,NW,315,3.1,3.1,7,0.00,,,0.00,WUHU216HW,2013-03-24 08:30:00,
2013-03-24 02:35:00,46.3,-7.4,29.91,NW,315,3.1,3.1,7,0.00,,,0.00,WUHU216HW,2013-03-24 08:35:00,
2013-03-24 03:00:00,45.0,-8.4,29.92,NNE,23,2.2,2.2,7,0.00,,,0.00,WUHU216HW,2013-03-24 09:00:00,
2013-03-24 03:05:00,45.0,-8.4,29.92,NNE,23,2.2,2.2,7,0.00,,,0.00,WUHU216HW,2013-03-24 09:05:00,
2013-03-24 03:30:00,44.3,-8.9,29.93,NNE,23,0.0,0.0,9,0.00,,,0.00,WUHU216HW,2013-03-24 09:30:00,
2013-03-24 03:35:00,44.3,-8.9,29.93,NNE,23,0.0,0.0,9,0.00,,,0.00,WUHU216HW,2013-03-24 09:35:00,
2013-03-24 04:00:00,44.1,-9.1,29.93,ESE,113,1.8,1.8,10,0.00,,,0.00,WUHU216HW,2013-03-24 10:00:00,
2013-03-24 04:05:00,44.1,-9.1,29.93,ESE,113,1.8,1.8,10,0.00,,,0.00,WUHU216HW,2013-03-24 10:05:00,
2013-03-24 04:30:00,42.8,-7.2,29.95,ESE,113,5.1,5.1,12,0.00,,,0.00,WUHU216HW,2013-03-24 10:30:00,
2013-03-24 04:35:00,42.8,-7.2,29.95,ESE,113,5.1,5.1,12,0.00,,,0.00,WUHU216HW,2013-03-24 10:35:00,
2013-03-24 05:00:00,40.7,-3.0,29.95,East,90,6.0,6.0,16,0.00,,,0.00,WUHU216HW,2013-03-24 11:00:00,
2013-03-24 05:05:00,40.7,-3.0,29.95,East,90,6.0,6.0,16,0.00,,,0.00,WUHU216HW,2013-03-24 11:05:00,
2013-03-24 05:30:00,40.0,-0.8,29.96,NE,45,4.0,4.0,18,0.00,,,0.00,WUHU216HW,2013-03-24 11:30:00,
2013-03-24 05:35:00,40.0,-0.8,29.96,NE,45,4.0,4.0,18,0.00,,,0.00,WUHU216HW,2013-03-24 11:35:00,
2013-03-24 06:00:00,39.1,1.3,29.96,East,90,5.6,5.6,20,0.00,,,0.00,WUHU216HW,2013-03-24 12:00:00,
2013-03-24 06:05:00,39.1,1.3,29.96,East,90,5.6,5.6,20,0.00,,,0.00,WUHU216HW,2013-03-24 12:05:00,
2013-03-24 06:30:00,38.5,0.9,29.96,East,90,5.4,5.4,20,0.00,,,0.00,WUHU216HW,2013-03-24 12:30:00,
2013-03-24 06:35:00,38.5,0.9,29.96,East,90,5.4,5.4,20,0.00,,,0.00,WUHU216HW,2013-03-24 12:35:00,
2013-03-24 07:00:00,37.6,1.0,29.97,East,90,6.9,6.9,21,0.00,,,0.00,WUHU216HW,2013-03-24 13:00:00,
2013-03-24 07:05:00,37.6,1.0,29.97,East,90,6.9,6.9,21,0.00,,,0.00,WUHU216HW,2013-03-24 13:05:00,
2013-03-24 07:30:00,37.4,1.8,29.98,NE,45,3.1,3.1,22,0.00,,,0.00,WUHU216HW,2013-03-24 13:30:00,
2013-03-24 07:35:00,37.4,1.8,29.98,NE,45,3.1,3.1,22,0.00,,,0.00,WUHU216HW,2013-03-24 13:35:00,
2013-03-24 08:00:00,38.2,2.3,29.99,ESE,113,5.4,5.4,22,0.00,,,0.00,WUHU216HW,2013-03-24 14:00:00,
2013-03-24 08:05:00,38.2,2.3,29.99,ESE,113,5.4,5.4,22,0.00,,,0.00,WUHU216HW,2013-03-24 14:05:00,
2013-03-24 08:30:00,40.0,3.0,29.99,East,90,8.3,8.3,21,0.00,,,0.00,WUHU216HW,2013-03-24 14:30:00,
2013-03-24 08:35:00,40.0,3.0,29.99,East,90,8.3,8.3,21,0.00,,,0.00,WUHU216HW,2013-03-24 14:35:00,
2013-03-24 09:00:00,42.8,5.4,30.00,East,90,6.3,6.3,21,0.00,,,0.00,WUHU216HW,2013-03-24 15:00:00,
2013-03-24 09:05:00,42.8,5.4,30.00,East,90,6.3,6.3,21,0.00,,,0.00,WUHU216HW,2013-03-24 15:05:00,
2013-03-24 09:30:00,47.9,7.2,30.00,ESE,113,4.9,4.9,19,0.00,,,0.00,WUHU216HW,2013-03-24 15:30:00,
2013-03-24 09:35:00,47.9,7.2,30.00,ESE,113,4.9,4.9,19,0.00,,,0.00,WUHU216HW,2013-03-24 15:35:00,
2013-03-24 10:00:00,50.6,5.1,29.99,ESE,113,6.3,6.3,16,0.00,,,0.00,WUHU216HW,2013-03-24 16:00:00,
2013-03-24 10:05:00,50.6,5.1,29.99,ESE,113,6.3,6.3,16,0.00,,,0.00,WUHU216HW,2013-03-24 16:05:00,
2013-03-24 10:30:00,51.8,6.0,29.99,ESE,113,6.0,6.0,16,0.00,,,0.00,WUHU216HW,2013-03-24 16:30:00,
2013-03-24 10:35:00,51.8,6.0,29.99,ESE,113,6.0,6.0,16,0.00,,,0.00,WUHU216HW,2013-03-24 16:35:00,
2013-03-24 10:51:00,52.6,5.0,29.98,SSE,158,6.9,6.9,15,0.00,,,0.00,WUHU216HW,2013-03-24 16:51:00,
2013-03-24 10:56:00,52.2,4.8,29.98,East,90,6.9,10.3,15,0.00,,,0.00,WUHU216HW,2013-03-24 16:56:00,
2013-03-24 11:01:00,52.0,3.2,29.98,East,90,3.1,10.3,14,0.00,,,0.00,WUHU216HW,2013-03-24 17:01:00,
2013-03-24 11:06:00,51.5,2.7,29.98,SE,135,4.7,10.5,14,0.00,,,0.00,WUHU216HW,2013-03-24 17:06:00,
2013-03-24 11:11:00,52.2,3.2,29.98,SE,135,4.3,10.5,14,0.00,,,0.00,WUHU216HW,2013-03-24 17:11:00,
2013-03-24 11:16:00,51.8,3.0,29.97,ESE,113,10.1,11.9,14,0.00,,,0.00,WUHU216HW,2013-03-24 17:16:00,
2013-03-24 11:21:00,51.8,3.0,29.97,NE,45,6.9,11.9,14,0.00,,,0.00,WUHU216HW,2013-03-24 17:21:00,
2013-03-24 11:26:00,52.4,3.4,29.97,ESE,113,2.7,11.4,14,0.00,,,0.00,WUHU216HW,2013-03-24 17:26:00,
2013-03-24 11:31:00,52.6,3.6,29.97,East,90,6.5,7.8,14,0.00,,,0.00,WUHU216HW,2013-03-24 17:31:00,
2013-03-24 11:36:00,54.0,4.8,29.97,East,90,5.1,7.6,14,0.00,,,0.00,WUHU216HW,2013-03-24 17:36:00,
2013-03-24 11:41:00,54.0,4.8,29.97,ESE,113,5.4,10.1,14,0.00,,,0.00,WUHU216HW,2013-03-24 17:41:00,
2013-03-24 11:46:00,53.6,4.4,29.96,SE,135,4.0,10.1,14,0.00,,,0.00,WUHU216HW,2013-03-24 17:46:00,
2013-03-24 11:51:00,54.0,4.8,29.96,SE,135,5.8,8.7,14,0.00,,,0.00,WUHU216HW,2013-03-24 17:51:00,
2013-03-24 11:57:00,53.8,4.6,29.96,East,90,5.4,7.2,14,0.00,,,0.00,WUHU216HW,2013-03-24 17:57:00,
2013-03-24 12:02:00,54.2,4.9,29.96,East,90,2.5,7.2,14,0.00,,,0.00,WUHU216HW,2013-03-24 18:02:00,
2013-03-24 12:07:00,54.9,7.0,29.95,ESE,113,5.6,7.4,15,0.00,,,0.00,WUHU216HW,2013-03-24 18:07:00,
2013-03-24 12:12:00,55.4,7.5,29.95,ESE,113,3.4,8.3,15,0.00,,,0.00,WUHU216HW,2013-03-24 18:12:00,
2013-03-24 12:17:00,55.4,4.4,29.95,ESE,113,0.2,8.3,13,0.00,,,0.00,WUHU216HW,2013-03-24 18:17:00,
2013-03-24 12:22:00,56.2,8.0,29.95,SE,135,3.6,8.3,15,0.00,,,0.00,WUHU216HW,2013-03-24 18:22:00,
2013-03-24 12:27:00,56.7,5.3,29.95,ENE,68,2.0,6.9,13,0.00,,,0.00,WUHU216HW,2013-03-24 18:27:00,
2013-03-24 12:32:00,56.3,5.0,29.94,ENE,68,2.7,6.9,13,0.00,,,0.00,WUHU216HW,2013-03-24 18:32:00,
2013-03-24 12:37:00,56.5,5.2,29.94,ESE,113,7.6,7.6,13,0.00,,,0.00,WUHU216HW,2013-03-24 18:37:00,
2013-03-24 12:42:00,56.2,5.0,29.94,East,90,7.4,8.5,13,0.00,,,0.00,WUHU216HW,2013-03-24 18:42:00,
2013-03-24 12:47:00,55.8,4.7,29.93,ESE,113,6.5,9.2,13,0.00,,,0.00,WUHU216HW,2013-03-24 18:47:00,
2013-03-24 12:52:00,56.3,5.0,29.93,NNE,23,3.8,9.2,13,0.00,,,0.00,WUHU216HW,2013-03-24 18:52:00,
2013-03-24 12:57:00,56.3,5.0,29.93,ESE,113,10.5,10.5,13,0.00,,,0.00,WUHU216HW,2013-03-24 18:57:00,
2013-03-24 13:02:00,56.3,5.0,29.93,ESE,113,6.3,10.5,13,0.00,,,0.00,WUHU216HW,2013-03-24 19:02:00,
2013-03-24 13:07:00,56.2,3.4,29.92,North,0,2.7,10.5,12,0.00,,,0.00,WUHU216HW,2013-03-24 19:07:00,
2013-03-24 13:12:00,55.8,3.2,29.92,NNE,23,1.8,9.6,12,0.00,,,0.00,WUHU216HW,2013-03-24 19:12:00,
2013-03-24 13:17:00,56.0,4.8,29.92,ESE,113,6.9,7.8,13,0.00,,,0.00,WUHU216HW,2013-03-24 19:17:00,
2013-03-24 13:22:00,56.2,3.4,29.91,East,90,8.1,8.1,12,0.00,,,0.00,WUHU216HW,2013-03-24 19:22:00,
2013-03-24 13:27:00,56.3,3.5,29.91,North,0,2.5,8.1,12,0.00,,,0.00,WUHU216HW,2013-03-24 19:27:00,
2013-03-24 13:32:00,56.2,5.0,29.91,ESE,113,1.1,8.7,13,0.00,,,0.00,WUHU216HW,2013-03-24 19:32:00,
2013-03-24 13:37:00,56.9,5.5,29.90,ENE,68,2.2,9.4,13,0.00,,,0.00,WUHU216HW,2013-03-24 19:37:00,
2013-03-24 13:42:00,56.9,4.0,29.90,ENE,68,6.0,9.4,12,0.00,,,0.00,WUHU216HW,2013-03-24 19:42:00,
2013-03-24 13:47:00,57.1,5.6,29.89,NE,45,1.8,6.9,13,0.00,,,0.00,WUHU216HW,2013-03-24 19:47:00,
2013-03-24 13:52:00,58.0,4.8,29.89,ENE,68,2.5,6.9,12,0.00,,,0.00,WUHU216HW,2013-03-24 19:52:00,
2013-03-24 13:57:00,57.8,4.6,29.89,ESE,113,6.9,9.4,12,0.00,,,0.00,WUHU216HW,2013-03-24 19:57:00,
2013-03-24 14:02:00,57.4,4.3,29.88,ENE,68,5.6,9.4,12,0.00,,,0.00,WUHU216HW,2013-03-24 20:02:00,
2013-03-24 14:07:00,57.1,4.1,29.88,ESE,113,1.6,8.5,12,0.00,,,0.00,WUHU216HW,2013-03-24 20:07:00,
2013-03-24 14:12:00,57.2,4.1,29.88,North,0,2.2,7.6,12,0.00,,,0.00,WUHU216HW,2013-03-24 20:12:00,
2013-03-24 14:17:00,57.1,4.1,29.87,ESE,113,0.0,4.0,12,0.00,,,0.00,WUHU216HW,2013-03-24 20:17:00,
2013-03-24 14:22:00,57.6,4.5,29.87,SE,135,5.4,6.3,12,0.00,,,0.00,WUHU216HW,2013-03-24 20:22:00,
2013-03-24 14:27:00,58.0,4.8,29.87,ESE,113,6.0,7.6,12,0.00,,,0.00,WUHU216HW,2013-03-24 20:27:00,
2013-03-24 14:32:00,58.7,5.3,29.86,SE,135,2.5,7.8,12,0.00,,,0.00,WUHU216HW,2013-03-24 20:32:00,
2013-03-24 14:37:00,59.4,6.0,29.86,SW,225,1.6,7.8,12,0.00,,,0.00,WUHU216HW,2013-03-24 20:37:00,
2013-03-24 14:42:00,60.1,5.0,29.85,SSE,158,4.0,5.8,11,0.00,,,0.00,WUHU216HW,2013-03-24 20:42:00,
2013-03-24 14:47:00,60.7,5.4,29.85,ESE,113,3.4,5.4,11,0.00,,,0.00,WUHU216HW,2013-03-24 20:47:00,
2013-03-24 14:52:00,60.5,5.2,29.85,SSW,203,1.8,5.4,11,0.00,,,0.00,WUHU216HW,2013-03-24 20:52:00,
2013-03-24 14:57:00,60.5,5.2,29.85,SSW,203,2.5,5.8,11,0.00,,,0.00,WUHU216HW,2013-03-24 20:57:00,
2013-03-24 15:02:00,61.4,5.9,29.84,NE,45,0.2,5.4,11,0.00,,,0.00,WUHU216HW,2013-03-24 21:02:00,
2013-03-24 15:07:00,61.2,5.9,29.84,ESE,113,2.2,4.5,11,0.00,,,0.00,WUHU216HW,2013-03-24 21:07:00,
2013-03-24 15:12:00,60.8,5.5,29.84,WNW,293,0.7,4.5,11,0.00,,,0.00,WUHU216HW,2013-03-24 21:12:00,
2013-03-24 15:17:00,60.8,5.5,29.83,ESE,113,0.7,3.4,11,0.00,,,0.00,WUHU216HW,2013-03-24 21:17:00,
2013-03-24 15:22:00,60.8,5.5,29.83,ESE,113,9.8,9.8,11,0.00,,,0.00,WUHU216HW,2013-03-24 21:22:00,
2013-03-24 15:27:00,60.8,5.5,29.83,ESE,113,1.1,9.8,11,0.00,,,0.00,WUHU216HW,2013-03-24 21:27:00,
2013-03-24 15:32:00,61.4,5.9,29.83,NE,45,0.9,4.9,11,0.00,,,0.00,WUHU216HW,2013-03-24 21:32:00,
2013-03-24 15:38:00,61.6,6.1,29.82,SSE,158,0.4,3.1,11,0.00,,,0.00,WUHU216HW,2013-03-24 21:38:00,
2013-03-24 15:43:00,61.9,6.4,29.82,SSW,203,4.0,4.0,11,0.00,,,0.00,WUHU216HW,2013-03-24 21:43:00,
2013-03-24 15:47:00,62.3,6.7,29.82,ESE,113,2.7,4.0,11,0.00,,,0.00,WUHU216HW,2013-03-24 21:47:00,
2013-03-24 15:53:00,62.3,6.7,29.82,WSW,248,2.9,5.4,11,0.00,,,0.00,WUHU216HW,2013-03-24 21:53:00,
2013-03-24 15:57:00,62.5,5.2,29.81,SSE,158,1.1,5.4,10,0.00,,,0.00,WUHU216HW,2013-03-24 21:57:00,
2013-03-24 16:02:00,63.0,5.7,29.80,SE,135,3.4,4.3,10,0.00,,,0.00,WUHU216HW,2013-03-24 22:02:00,
2013-03-24 16:07:00,63.4,6.0,29.80,West,270,3.4,5.4,10,0.00,,,0.00,WUHU216HW,2013-03-24 22:07:00,
2013-03-24 16:12:00,63.5,6.0,29.80,WSW,248,3.4,5.4,10,0.00,,,0.00,WUHU216HW,2013-03-24 22:12:00,
2013-03-24 16:17:00,64.1,6.4,29.80,SW,225,1.3,5.4,10,0.00,,,0.00,WUHU216HW,2013-03-24 22:17:00,
2013-03-24 16:22:00,64.1,6.4,29.79,SSE,158,1.6,3.4,10,0.00,,,0.00,WUHU216HW,2013-03-24 22:22:00,
2013-03-24 16:27:00,64.1,6.4,29.79,ESE,113,5.8,5.8,10,0.00,,,0.00,WUHU216HW,2013-03-24 22:27:00,
2013-03-24 16:32:00,63.4,6.0,29.79,SE,135,0.4,5.8,10,0.00,,,0.00,WUHU216HW,2013-03-24 22:32:00,
2013-03-24 16:37:00,63.4,6.0,29.79,East,90,0.4,5.4,10,0.00,,,0.00,WUHU216HW,2013-03-24 22:37:00,
2013-03-24 16:42:00,63.2,5.8,29.79,East,90,4.5,4.9,10,0.00,,,0.00,WUHU216HW,2013-03-24 22:42:00,
2013-03-24 16:47:00,62.6,5.4,29.79,NE,45,0.9,4.9,10,0.00,,,0.00,WUHU216HW,2013-03-24 22:47:00,
2013-03-24 16:52:00,62.5,5.2,29.79,ENE,68,2.7,4.3,10,0.00,,,0.00,WUHU216HW,2013-03-24 22:52:00,
2013-03-24 16:57:00,62.8,5.5,29.78,WSW,248,0.4,2.7,10,0.00,,,0.00,WUHU216HW,2013-03-24 22:57:00,
2013-03-24 17:02:00,63.0,5.7,29.78,West,270,1.3,2.5,10,0.00,,,0.00,WUHU216HW,2013-03-24 23:02:00,
2013-03-24 17:07:00,63.2,5.8,29.78,WNW,293,2.5,2.5,10,0.00,,,0.00,WUHU216HW,2013-03-24 23:07:00,
2013-03-24 17:12:00,63.5,6.0,29.78,West,270,0.4,2.5,10,0.00,,,0.00,WUHU216HW,2013-03-24 23:12:00,
2013-03-24 17:17:00,63.9,6.3,29.78,SSE,158,0.4,2.2,10,0.00,,,0.00,WUHU216HW,2013-03-24 23:17:00,
2013-03-24 17:22:00,64.4,6.7,29.78,ESE,113,5.6,6.0,10,0.00,,,0.00,WUHU216HW,2013-03-24 23:22:00,
2013-03-24 17:27:00,64.3,6.6,29.78,SE,135,1.8,6.0,10,0.00,,,0.00,WUHU216HW,2013-03-24 23:27:00,
2013-03-24 17:32:00,64.4,6.7,29.78,SSW,203,4.3,4.3,10,0.00,,,0.00,WUHU216HW,2013-03-24 23:32:00,
2013-03-24 17:37:00,64.4,6.7,29.78,ESE,113,2.0,4.3,10,0.00,,,0.00,WUHU216HW,2013-03-24 23:37:00,
2013-03-24 17:43:00,64.3,6.6,29.78,WSW,248,3.8,4.3,10,0.00,,,0.00,WUHU216HW,2013-03-24 23:43:00,
2013-03-24 17:48:00,64.3,6.6,29.78,SSW,203,4.9,6.3,10,0.00,,,0.00,WUHU216HW,2013-03-24 23:48:00,
2013-03-24 17:52:00,64.4,6.7,29.77,SE,135,0.0,6.3,10,0.00,,,0.00,WUHU216HW,2013-03-24 23:52:00,
2013-03-24 17:58:00,64.1,6.4,29.78,SSW,203,3.6,3.6,10,0.00,,,0.00,WUHU216HW,2013-03-24 23:58:00,
2013-03-24 18:03:00,64.1,6.4,29.77,SSW,203,2.9,5.4,10,0.00,,,0.00,WUHU216HW,2013-03-25 00:03:00,
2013-03-24 18:08:00,64.1,6.4,29.77,WSW,248,2.9,5.4,10,0.00,,,0.00,WUHU216HW,2013-03-25 00:08:00,
2013-03-24 18:13:00,64.3,6.6,29.77,West,270,4.5,4.7,10,0.00,,,0.00,WUHU216HW,2013-03-25 00:13:00,
2013-03-24 18:18:00,64.3,6.6,29.77,WSW,248,0.7,4.7,10,0.00,,,0.00,WUHU216HW,2013-03-25 00:18:00,
2013-03-24 18:23:00,64.1,6.4,29.77,SW,225,1.3,4.5,10,0.00,,,0.00,WUHU216HW,2013-03-25 00:23:00,
2013-03-24 18:28:00,64.1,6.4,29.77,West,270,2.0,4.5,10,0.00,,,0.00,WUHU216HW,2013-03-25 00:28:00,
2013-03-24 18:33:00,63.7,6.1,29.77,SW,225,1.1,3.6,10,0.00,,,0.00,WUHU216HW,2013-03-25 00:33:00,
2013-03-24 18:38:00,63.5,6.0,29.77,SSW,203,2.2,4.0,10,0.00,,,0.00,WUHU216HW,2013-03-25 00:38:00,
2013-03-24 18:43:00,63.5,6.0,29.77,WSW,248,3.4,4.0,10,0.00,,,0.00,WUHU216HW,2013-03-25 00:43:00,
2013-03-24 18:48:00,63.4,6.0,29.77,WSW,248,0.7,3.6,10,0.00,,,0.00,WUHU216HW,2013-03-25 00:48:00,
2013-03-24 18:53:00,63.2,5.8,29.77,SW,225,2.2,4.3,10,0.00,,,0.00,WUHU216HW,2013-03-25 00:53:00,
2013-03-24 18:58:00,63.0,5.7,29.77,WSW,248,2.0,4.3,10,0.00,,,0.00,WUHU216HW,2013-03-25 00:58:00,
2013-03-24 19:03:00,63.0,5.7,29.77,WSW,248,1.1,3.4,10,0.00,,,0.00,WUHU216HW,2013-03-25 01:03:00,
2013-03-24 19:08:00,62.6,5.4,29.77,WSW,248,0.4,2.9,10,0.00,,,0.00,WUHU216HW,2013-03-25 01:08:00,
2013-03-24 19:13:00,62.5,5.2,29.77,SSW,203,1.1,2.5,10,0.00,,,0.00,WUHU216HW,2013-03-25 01:13:00,
2013-03-24 19:18:00,62.5,5.2,29.77,SW,225,1.8,2.5,10,0.00,,,0.00,WUHU216HW,2013-03-25 01:18:00,
2013-03-24 19:23:00,62.3,5.1,29.77,SSE,158,2.9,2.9,10,0.00,,,0.00,WUHU216HW,2013-03-25 01:23:00,
2013-03-24 19:28:00,62.1,5.0,29.77,SSW,203,0.9,2.9,10,0.00,,,0.00,WUHU216HW,2013-03-25 01:28:00,
2013-03-24 19:33:00,61.9,4.9,29.77,SW,225,3.4,3.4,10,0.00,,,0.00,WUHU216HW,2013-03-25 01:33:00,
2013-03-24 19:38:00,61.7,4.7,29.77,SSE,158,0.7,3.4,10,0.00,,,0.00,WUHU216HW,2013-03-25 01:38:00,
2013-03-24 19:43:00,61.6,4.5,29.77,SSW,203,1.3,1.8,10,0.00,,,0.00,WUHU216HW,2013-03-25 01:43:00,
2013-03-24 19:48:00,61.6,4.5,29.77,SE,135,1.3,2.5,10,0.00,,,0.00,WUHU216HW,2013-03-25 01:48:00,
2013-03-24 19:53:00,61.2,5.9,29.77,SSE,158,1.6,2.5,11,0.00,,,0.00,WUHU216HW,2013-03-25 01:53:00,
2013-03-24 19:58:00,61.0,5.7,29.77,SE,135,3.4,4.5,11,0.00,,,0.00,WUHU216HW,2013-03-25 01:58:00,
2013-03-24 20:03:00,60.8,5.5,29.77,ESE,113,2.5,4.5,11,0.00,,,0.00,WUHU216HW,2013-03-25 02:03:00,
2013-03-24 20:08:00,60.7,5.4,29.77,SE,135,3.8,4.0,11,0.00,,,0.00,WUHU216HW,2013-03-25 02:08:00,
2013-03-24 20:13:00,60.3,5.1,29.77,SE,135,2.2,5.1,11,0.00,,,0.00,WUHU216HW,2013-03-25 02:13:00,
2013-03-24 20:18:00,60.1,5.0,29.77,ESE,113,3.4,6.0,11,0.00,,,0.00,WUHU216HW,2013-03-25 02:18:00,
2013-03-24 20:23:00,59.9,4.8,29.78,SE,135,1.1,6.0,11,0.00,,,0.00,WUHU216HW,2013-03-25 02:23:00,
2013-03-24 20:28:00,59.6,4.5,29.78,SE,135,3.4,3.8,11,0.00,,,0.00,WUHU216HW,2013-03-25 02:28:00,
2013-03-24 20:33:00,59.4,4.3,29.78,SE,135,5.1,5.1,11,0.00,,,0.00,WUHU216HW,2013-03-25 02:33:00,
2013-03-24 20:38:00,59.2,4.2,29.78,ESE,113,4.3,5.1,11,0.00,,,0.00,WUHU216HW,2013-03-25 02:38:00,
2013-03-24 20:43:00,58.7,3.8,29.78,ESE,113,5.6,6.5,11,0.00,,,0.00,WUHU216HW,2013-03-25 02:43:00,
2013-03-24 20:48:00,58.3,3.5,29.78,ESE,113,3.4,6.5,11,0.00,,,0.00,WUHU216HW,2013-03-25 02:48:00,
2013-03-24 20:53:00,58.0,3.3,29.78,SE,135,4.9,4.9,11,0.00,,,0.00,WUHU216HW,2013-03-25 02:53:00,
2013-03-24 20:58:00,57.8,4.6,29.78,SE,135,3.4,5.8,12,0.00,,,0.00,WUHU216HW,2013-03-25 02:58:00,
2013-03-24 21:03:00,57.8,4.6,29.78,ESE,113,1.8,6.7,12,0.00,,,0.00,WUHU216HW,2013-03-25 03:03:00,
2013-03-24 21:08:00,57.6,4.5,29.79,SE,135,4.0,6.7,12,0.00,,,0.00,WUHU216HW,2013-03-25 03:08:00,
2013-03-24 21:13:00,57.6,4.5,29.79,SE,135,4.3,5.4,12,0.00,,,0.00,WUHU216HW,2013-03-25 03:13:00,
2013-03-24 21:18:00,57.4,4.3,29.79,SE,135,4.0,5.4,12,0.00,,,0.00,WUHU216HW,2013-03-25 03:18:00,
2013-03-24 21:23:00,57.4,4.3,29.79,SW,225,0.9,4.3,12,0.00,,,0.00,WUHU216HW,2013-03-25 03:23:00,
2013-03-24 21:28:00,57.4,4.3,29.79,SSE,158,2.5,4.0,12,0.00,,,0.00,WUHU216HW,2013-03-25 03:28:00,
2013-03-24 21:33:00,57.2,4.1,29.79,ESE,113,2.2,3.4,12,0.00,,,0.00,WUHU216HW,2013-03-25 03:33:00,
2013-03-24 21:38:00,57.2,4.1,29.79,South,180,1.3,6.3,12,0.00,,,0.00,WUHU216HW,2013-03-25 03:38:00,
2013-03-24 21:43:00,57.2,4.1,29.80,ESE,113,5.4,6.3,12,0.00,,,0.00,WUHU216HW,2013-03-25 03:43:00,
2013-03-24 21:48:00,57.1,4.1,29.80,SE,135,4.9,5.4,12,0.00,,,0.00,WUHU216HW,2013-03-25 03:48:00,
2013-03-24 21:53:00,56.9,4.0,29.80,SE,135,4.7,5.4,12,0.00,,,0.00,WUHU216HW,2013-03-25 03:53:00,
2013-03-24 21:58:00,56.9,4.0,29.80,SE,135,2.9,4.9,12,0.00,,,0.00,WUHU216HW,2013-03-25 03:58:00,
2013-03-24 22:00:00,56.7,3.8,29.80,SE,135,3.8,4.7,12,0.00,,,0.00,WUHU216HW,2013-03-25 04:00:00,
2013-03-24 22:05:00,56.5,3.7,29.80,ESE,113,4.5,5.4,12,0.00,,,0.00,WUHU216HW,2013-03-25 04:05:00,
2013-03-24 22:10:00,56.5,3.7,29.80,East,90,3.8,6.7,12,0.00,,,0.00,WUHU216HW,2013-03-25 04:10:00,
2013-03-24 22:15:00,56.3,3.5,29.80,ESE,113,3.6,6.7,12,0.00,,,0.00,WUHU216HW,2013-03-25 04:15:00,
2013-03-24 22:20:00,55.8,3.2,29.80,ESE,113,0.0,4.5,12,0.00,,,0.00,WUHU216HW,2013-03-25 04:20:00,
2013-03-24 22:25:00,55.6,3.0,29.81,NNE,23,0.7,3.6,12,0.00,,,0.00,WUHU216HW,2013-03-25 04:25:00,
2013-03-24 22:30:00,55.4,2.9,29.80,ESE,113,0.4,1.6,12,0.00,,,0.00,WUHU216HW,2013-03-25 04:30:00,
2013-03-24 22:35:00,55.1,2.6,29.81,ESE,113,3.4,3.4,12,0.00,,,0.00,WUHU216HW,2013-03-25 04:35:00,
2013-03-24 22:40:00,54.5,3.7,29.81,ESE,113,4.0,4.9,13,0.00,,,0.00,WUHU216HW,2013-03-25 04:40:00,
2013-03-24 22:45:00,54.2,1.9,29.81,SE,135,0.4,4.9,12,0.00,,,0.00,WUHU216HW,2013-03-25 04:45:00,
2013-03-24 22:50:00,54.0,1.7,29.81,SE,135,2.5,3.6,12,0.00,,,0.00,WUHU216HW,2013-03-25 04:50:00,
2013-03-24 22:55:00,54.0,1.7,29.81,SSW,203,4.7,6.3,12,0.00,,,0.00,WUHU216HW,2013-03-25 04:55:00,
2013-03-24 23:00:00,53.8,1.5,29.81,SE,135,4.7,6.9,12,0.00,,,0.00,WUHU216HW,2013-03-25 05:00:00,
2013-03-24 23:05:00,53.8,1.5,29.81,SE,135,4.7,7.6,12,0.00,,,0.00,WUHU216HW,2013-03-25 05:05:00,
2013-03-24 23:10:00,53.8,1.5,29.81,ESE,113,4.3,7.6,12,0.00,,,0.00,WUHU216HW,2013-03-25 05:10:00,
2013-03-24 23:15:00,53.8,1.5,29.81,ESE,113,3.4,6.3,12,0.00,,,0.00,WUHU216HW,2013-03-25 05:15:00,
2013-03-24 23:20:00,54.0,1.7,29.81,SW,225,3.8,5.8,12,0.00,,,0.00,WUHU216HW,2013-03-25 05:20:00,
2013-03-24 23:25:00,54.2,1.9,29.81,SSW,203,2.9,4.0,12,0.00,,,0.00,WUHU216HW,2013-03-25 05:25:00,
2013-03-24 23:30:00,54.4,2.0,29.81,SE,135,1.8,3.8,12,0.00,,,0.00,WUHU216HW,2013-03-25 05:30:00,
2013-03-24 23:35:00,54.4,2.0,29.81,ESE,113,0.4,4.0,12,0.00,,,0.00,WUHU216HW,2013-03-25 05:35:00,
2013-03-24 23:40:00,54.2,1.9,29.81,ESE,113,0.4,4.0,12,0.00,,,0.00,WUHU216HW,2013-03-25 05:40:00,
2013-03-24 23:45:00,53.8,1.5,29.81,ESE,113,1.8,2.2,12,0.00,,,0.00,WUHU216HW,2013-03-25 05:45:00,
2013-03-24 23:50:00,53.6,1.5,29.81,SE,135,0.4,2.2,12,0.00,,,0.00,WUHU216HW,2013-03-25 05:50:00,
2013-03-24 23:55:00,53.6,1.5,29.81,SSE,158,1.3,2.2,12,0.00,,,0.00,WUHU216HW,2013-03-25 05:55:00,